createdAt,value
2022-09-03T00:00:25.519Z,46.48
2022-09-03T00:03:00.878Z,46.58
2022-09-03T00:05:36.850Z,46.52
2022-09-03T00:08:15.066Z,46.40
2022-09-03T00:10:48.629Z,46.55
2022-09-03T00:13:21.538Z,46.27
2022-09-03T00:15:50.817Z,46.23
2022-09-03T00:18:23.127Z,46.63
2022-09-03T00:20:55.346Z,47.81
2022-09-03T00:23:28.595Z,47.25
2022-09-03T00:26:03.026Z,46.70
2022-09-03T00:28:42.734Z,47.25
2022-09-03T00:31:18.511Z,46.72
2022-09-03T00:33:49.504Z,46.71
2022-09-03T00:36:22.205Z,46.84
2022-09-03T00:38:52.289Z,47.03
2022-09-03T00:41:31.974Z,47.31
2022-09-03T00:44:26.630Z,47.51
2022-09-03T00:47:01.796Z,46.83
2022-09-03T00:49:40.934Z,47.04
2022-09-03T00:52:19.825Z,47.61
2022-09-03T00:55:03.636Z,47.73
2022-09-03T00:57:44.376Z,47.21
2022-09-03T01:00:16.246Z,47.63
2022-09-03T01:02:57.123Z,48.08
2022-09-03T01:06:01.658Z,48.11
2022-09-03T01:08:54.455Z,48.17
2022-09-03T01:11:34.216Z,47.71
2022-09-03T01:14:14.219Z,48.02
2022-09-03T01:16:51.778Z,47.56
2022-09-03T01:19:53.550Z,48.41
2022-09-03T01:22:41.986Z,48.38
2022-09-03T01:25:18.746Z,47.81
2022-09-03T01:28:04.259Z,47.98
2022-09-03T01:30:38.411Z,47.94
2022-09-03T01:33:13.710Z,47.82
2022-09-03T01:35:48.253Z,47.96
2022-09-03T01:38:27.465Z,47.66
2022-09-03T01:41:21.507Z,47.81
2022-09-03T01:44:04.812Z,48.20
2022-09-03T01:46:39.922Z,47.80
2022-09-03T01:49:17.227Z,48.30
2022-09-03T01:51:45.622Z,47.82
2022-09-03T01:54:46.535Z,48.83
2022-09-03T01:57:37.294Z,48.46
2022-09-03T02:00:11.912Z,48.05
2022-09-03T02:02:41.313Z,48.29
2022-09-03T02:05:12.943Z,48.33
2022-09-03T02:07:43.190Z,48.24
2022-09-03T02:10:15.508Z,48.39
2022-09-03T02:12:49.565Z,48.57
2022-09-03T02:15:22.895Z,48.43
2022-09-03T02:17:56.490Z,48.76
2022-09-03T02:20:29.966Z,48.71
2022-09-03T02:22:59.656Z,48.81
2022-09-03T02:25:34.702Z,49.25
2022-09-03T02:28:04.846Z,49.26
2022-09-03T02:30:38.755Z,49.23
2022-09-03T02:33:06.987Z,49.26
2022-09-03T02:35:35.869Z,49.58
2022-09-03T02:38:11.919Z,49.99
2022-09-03T02:40:40.810Z,49.96
2022-09-03T02:43:15.215Z,49.65
2022-09-03T02:45:48.763Z,50.11
2022-09-03T02:48:21.826Z,49.90
2022-09-03T02:50:50.164Z,50.06
2022-09-03T02:53:18.643Z,50.35
2022-09-03T02:55:47.409Z,50.14
2022-09-03T02:58:15.730Z,50.72
2022-09-03T03:00:45.514Z,50.80
2022-09-03T03:03:13.704Z,50.56
2022-09-03T03:05:48.057Z,50.73
2022-09-03T03:08:17.159Z,50.51
2022-09-03T03:10:46.196Z,50.84
2022-09-03T03:13:15.023Z,50.98
2022-09-03T03:15:46.371Z,51.28
2022-09-03T03:18:14.658Z,51.29
2022-09-03T03:20:44.434Z,51.09
2022-09-03T03:23:12.694Z,51.37
2022-09-03T03:25:41.169Z,51.61
2022-09-03T03:28:09.619Z,51.30
2022-09-03T03:30:40.399Z,51.26
2022-09-03T03:33:10.485Z,51.74
2022-09-03T03:35:38.852Z,51.42
2022-09-03T03:38:06.966Z,51.01
2022-09-03T03:40:35.547Z,50.93
2022-09-03T03:43:03.824Z,51.23
2022-09-03T03:45:32.138Z,51.38
2022-09-03T03:48:00.447Z,51.16
2022-09-03T03:50:29.971Z,51.69
2022-09-03T03:53:01.919Z,51.34
2022-09-03T03:55:30.742Z,51.97
2022-09-03T03:58:03.376Z,51.83
2022-09-03T04:00:31.595Z,51.75
2022-09-03T04:03:01.000Z,51.57
2022-09-03T04:05:33.688Z,51.95
2022-09-03T04:08:03.734Z,51.65
2022-09-03T04:10:31.919Z,51.96
2022-09-03T04:13:01.138Z,51.98
2022-09-03T04:15:29.571Z,51.78
2022-09-03T04:17:57.682Z,52.23
2022-09-03T04:20:25.877Z,51.91
2022-09-03T04:22:56.684Z,52.83
2022-09-03T04:25:24.879Z,52.46
2022-09-03T04:27:53.862Z,53.19
2022-09-03T04:30:22.953Z,52.61
2022-09-03T04:32:54.640Z,53.22
2022-09-03T04:35:23.885Z,52.76
2022-09-03T04:37:53.608Z,53.09
2022-09-03T04:40:23.593Z,53.56
2022-09-03T04:42:52.488Z,53.45
2022-09-03T04:45:20.690Z,53.66
2022-09-03T04:47:58.396Z,53.83
2022-09-03T04:50:28.025Z,53.66
2022-09-03T04:52:59.239Z,53.81
2022-09-03T04:55:28.923Z,53.58
2022-09-03T04:57:57.144Z,53.55
2022-09-03T05:00:25.417Z,53.33
2022-09-03T05:02:53.727Z,53.78
2022-09-03T05:05:22.191Z,53.62
2022-09-03T05:07:50.462Z,53.58
2022-09-03T05:10:20.644Z,54.06
2022-09-03T05:13:00.261Z,54.36
2022-09-03T05:15:28.790Z,54.23
2022-09-03T05:18:02.020Z,54.22
2022-09-03T05:20:31.220Z,54.31
2022-09-03T05:23:03.382Z,54.24
2022-09-03T05:25:32.792Z,54.47
2022-09-03T05:28:03.388Z,54.72
2022-09-03T05:30:31.837Z,55.07
2022-09-03T05:33:00.133Z,54.84
2022-09-03T05:35:30.373Z,55.02
2022-09-03T05:37:59.607Z,54.65
2022-09-03T05:40:27.952Z,54.86
2022-09-03T05:42:59.203Z,54.55
2022-09-03T05:45:29.963Z,54.59
2022-09-03T05:48:01.648Z,55.05
2022-09-03T05:50:30.300Z,54.58
2022-09-03T05:53:00.575Z,54.94
2022-09-03T05:55:29.915Z,55.01
2022-09-03T05:57:58.212Z,55.63
2022-09-03T06:00:26.454Z,55.60
2022-09-03T06:02:56.301Z,55.52
2022-09-03T06:05:24.726Z,55.74
2022-09-03T06:07:53.743Z,55.08
2022-09-03T06:10:25.720Z,55.06
2022-09-03T06:12:56.311Z,55.21
2022-09-03T06:15:24.627Z,55.76
2022-09-03T06:17:52.994Z,55.67
2022-09-03T06:20:22.869Z,55.94
2022-09-03T06:22:53.585Z,55.33
2022-09-03T06:25:21.929Z,55.63
2022-09-03T06:27:50.770Z,55.25
2022-09-03T06:30:19.228Z,55.56
2022-09-03T06:32:47.539Z,54.53
2022-09-03T06:35:16.190Z,54.73
2022-09-03T06:37:46.310Z,55.21
2022-09-03T06:40:20.625Z,54.70
2022-09-03T06:43:02.530Z,55.50
2022-09-03T06:45:31.444Z,54.84
2022-09-03T06:47:59.899Z,53.65
2022-09-03T06:50:31.364Z,53.15
2022-09-03T06:53:04.134Z,52.43
2022-09-03T06:55:32.477Z,52.23
2022-09-03T06:58:00.835Z,52.26
2022-09-03T07:00:29.110Z,51.05
2022-09-03T07:03:00.330Z,50.08
2022-09-03T07:05:29.089Z,50.05
2022-09-03T07:07:57.396Z,49.53
2022-09-03T07:10:28.246Z,49.65
2022-09-03T07:12:57.157Z,49.23
2022-09-03T07:15:26.575Z,48.36
2022-09-03T07:17:55.190Z,48.75
2022-09-03T07:20:23.545Z,47.90
2022-09-03T07:22:51.903Z,47.35
2022-09-03T07:25:20.098Z,46.82
2022-09-03T07:27:51.308Z,44.87
2022-09-03T07:30:20.361Z,45.64
2022-09-03T07:32:51.075Z,45.60
2022-09-03T07:35:19.929Z,43.89
2022-09-03T07:37:49.979Z,44.90
2022-09-03T07:40:20.018Z,44.16
2022-09-03T07:42:54.539Z,43.03
2022-09-03T07:45:24.146Z,43.24
2022-09-03T07:47:52.194Z,43.03
2022-09-03T07:50:20.623Z,41.38
2022-09-03T07:52:48.727Z,41.00
2022-09-03T07:55:17.715Z,40.79
2022-09-03T07:57:45.927Z,40.90
2022-09-03T08:00:17.902Z,40.49
2022-09-03T08:02:46.517Z,40.65
2022-09-03T08:05:15.077Z,41.03
2022-09-03T08:07:43.257Z,40.25
2022-09-03T08:10:11.841Z,40.15
2022-09-03T08:12:40.027Z,39.81
2022-09-03T08:15:09.776Z,39.02
2022-09-03T08:17:39.434Z,38.61
2022-09-03T08:20:08.324Z,38.13
2022-09-03T08:22:37.651Z,38.50
2022-09-03T08:25:06.305Z,37.16
2022-09-03T08:27:37.958Z,37.85
2022-09-03T08:30:09.858Z,37.42
2022-09-03T08:32:39.839Z,37.72
2022-09-03T08:35:10.113Z,37.42
2022-09-03T08:37:39.371Z,36.98
2022-09-03T08:40:08.464Z,37.16
2022-09-03T08:42:57.854Z,36.23
2022-09-03T08:45:26.810Z,34.80
2022-09-03T08:48:03.913Z,34.38
2022-09-03T08:50:36.035Z,35.44
2022-09-03T08:53:11.654Z,34.42
2022-09-03T08:55:48.136Z,34.97
2022-09-03T08:58:18.741Z,35.00
2022-09-03T09:01:01.643Z,34.08
2022-09-03T09:03:49.770Z,33.42
2022-09-03T09:06:27.702Z,33.82
2022-09-03T09:09:11.033Z,33.74
2022-09-03T09:11:52.036Z,33.71
2022-09-03T09:14:26.265Z,33.81
2022-09-03T09:17:05.718Z,33.31
2022-09-03T09:19:44.793Z,32.91
2022-09-03T09:22:19.335Z,32.88
2022-09-03T09:24:52.722Z,32.93
2022-09-03T09:27:21.232Z,32.84
2022-09-03T09:29:52.864Z,33.10
2022-09-03T09:32:21.943Z,32.57
2022-09-03T09:34:53.330Z,32.87
2022-09-03T09:37:22.205Z,32.53
2022-09-03T09:39:59.050Z,32.73
2022-09-03T09:42:30.050Z,33.21
2022-09-03T09:44:58.582Z,32.73
2022-09-03T09:47:30.141Z,33.11
2022-09-03T09:50:02.583Z,32.68
2022-09-03T09:52:31.857Z,32.60
2022-09-03T09:55:11.013Z,33.12
2022-09-03T09:57:40.506Z,33.00
2022-09-03T10:00:15.479Z,33.00
2022-09-03T10:02:50.949Z,32.10
2022-09-03T10:05:25.139Z,32.74
2022-09-03T10:07:59.512Z,31.81
2022-09-03T10:10:29.165Z,33.28
2022-09-03T10:13:03.811Z,33.60
2022-09-03T10:15:38.930Z,33.22
2022-09-03T10:18:17.311Z,32.14
2022-09-03T10:20:56.518Z,32.29
2022-09-03T10:23:28.407Z,32.30
2022-09-03T10:26:07.630Z,31.85
2022-09-03T10:28:41.523Z,32.31
2022-09-03T10:31:29.588Z,32.10
2022-09-03T10:34:02.334Z,32.33
2022-09-03T10:36:38.464Z,32.45
2022-09-03T10:39:11.574Z,32.36
2022-09-03T10:41:54.295Z,31.23
2022-09-03T10:44:42.863Z,32.12
2022-09-03T10:47:30.066Z,32.48
2022-09-03T10:50:04.681Z,32.68
2022-09-03T10:52:49.722Z,33.62
2022-09-03T10:55:24.410Z,32.72
2022-09-03T10:58:04.530Z,33.04
2022-09-03T11:00:35.791Z,32.69
2022-09-03T11:03:48.647Z,33.06
2022-09-03T11:06:22.779Z,32.95
2022-09-03T11:09:04.431Z,32.18
2022-09-03T11:11:39.347Z,32.51
2022-09-03T11:14:11.848Z,32.66
2022-09-03T11:16:45.634Z,32.57
2022-09-03T11:19:18.727Z,32.52
2022-09-03T11:21:50.265Z,33.34
2022-09-03T11:24:24.192Z,33.24
2022-09-03T11:26:57.287Z,33.18
2022-09-03T11:29:40.540Z,32.99
2022-09-03T11:32:16.044Z,33.39
2022-09-03T11:34:49.126Z,32.82
2022-09-03T11:37:24.008Z,33.10
2022-09-03T11:40:00.290Z,33.09
2022-09-03T11:42:35.351Z,32.87
2022-09-03T11:45:35.072Z,33.08
2022-09-03T11:48:03.890Z,32.77
2022-09-03T11:50:34.227Z,32.71
2022-09-03T11:53:11.288Z,31.92
2022-09-03T11:55:56.559Z,32.86
2022-09-03T11:58:28.407Z,32.93
2022-09-03T12:00:58.360Z,33.06
2022-09-03T12:03:30.295Z,33.14
2022-09-03T12:06:21.161Z,33.23
2022-09-03T12:09:13.971Z,33.25
2022-09-03T12:12:02.475Z,32.16
2022-09-03T12:14:43.736Z,32.84
2022-09-03T12:17:22.414Z,32.19
2022-09-03T12:19:54.269Z,32.30
2022-09-03T12:22:25.837Z,32.29
2022-09-03T12:24:54.140Z,32.08
2022-09-03T12:27:26.399Z,32.47
2022-09-03T12:30:00.121Z,32.37
2022-09-03T12:32:32.480Z,32.71
2022-09-03T12:35:13.256Z,32.34
2022-09-03T12:40:32.736Z,32.20
2022-09-03T12:46:13.288Z,31.17
2022-09-03T12:51:48.640Z,31.88
2022-09-03T12:54:19.173Z,31.68
2022-09-03T12:56:55.000Z,31.21
2022-09-03T12:59:28.754Z,31.57
2022-09-03T13:02:02.063Z,31.07
2022-09-03T13:04:33.745Z,31.28
2022-09-03T13:07:05.561Z,31.54
2022-09-03T13:09:38.043Z,31.63
2022-09-03T13:12:06.921Z,31.92
2022-09-03T13:14:48.110Z,31.42
2022-09-03T13:17:37.758Z,31.59
2022-09-03T13:20:23.169Z,31.86
2022-09-03T13:23:15.787Z,32.54
2022-09-03T13:25:53.804Z,31.75
2022-09-03T13:28:36.073Z,32.35
2022-09-03T13:31:27.689Z,32.51
2022-09-03T13:34:02.984Z,31.99
2022-09-03T13:36:39.319Z,32.03
2022-09-03T13:39:19.408Z,31.88
2022-09-03T13:41:53.596Z,31.62
2022-09-03T13:44:38.015Z,32.16
2022-09-03T13:47:14.770Z,32.71
2022-09-03T13:50:06.594Z,32.66
2022-09-03T13:52:43.068Z,33.10
2022-09-03T13:55:17.637Z,33.39
2022-09-03T13:57:52.622Z,33.58
2022-09-03T14:00:33.313Z,33.98
2022-09-03T14:03:12.218Z,33.65
2022-09-03T14:05:52.315Z,33.58
2022-09-03T14:08:27.320Z,33.63
2022-09-03T14:11:07.365Z,33.74
2022-09-03T14:13:56.817Z,34.39
2022-09-03T14:16:36.501Z,33.94
2022-09-03T14:19:12.993Z,34.26
2022-09-03T14:21:46.360Z,33.60
2022-09-03T14:24:22.384Z,33.17
2022-09-03T14:26:53.337Z,33.14
2022-09-03T14:29:27.057Z,33.35
2022-09-03T14:32:20.667Z,32.73
2022-09-03T14:35:09.022Z,32.32
2022-09-03T14:37:57.302Z,32.42
2022-09-03T14:40:31.600Z,32.71
2022-09-03T14:43:13.859Z,33.16
2022-09-03T14:46:03.604Z,33.62
2022-09-03T14:48:51.585Z,33.77
2022-09-03T14:51:47.485Z,33.35
2022-09-03T14:54:32.867Z,33.16
2022-09-03T14:57:22.865Z,33.52
2022-09-03T15:00:18.421Z,33.10
2022-09-03T15:03:10.778Z,33.54
2022-09-03T15:05:49.986Z,33.16
2022-09-03T15:08:47.127Z,33.59
2022-09-03T15:11:20.038Z,33.34
2022-09-03T15:13:54.665Z,33.58
2022-09-03T15:16:37.670Z,33.13
2022-09-03T15:19:30.403Z,33.27
2022-09-03T15:22:12.376Z,32.86
2022-09-03T15:24:52.515Z,32.92
2022-09-03T15:27:46.794Z,32.46
2022-09-03T15:30:19.219Z,33.52
2022-09-03T15:33:07.412Z,33.54
2022-09-03T15:35:57.406Z,33.32
2022-09-03T15:38:37.493Z,33.31
2022-09-03T15:41:14.230Z,33.04
2022-09-03T15:43:43.621Z,33.39
2022-09-03T15:46:31.417Z,33.54
2022-09-03T15:49:04.386Z,32.90
2022-09-03T15:51:37.622Z,33.11
2022-09-03T15:54:16.806Z,33.53
2022-09-03T15:56:54.817Z,33.37
2022-09-03T15:59:30.566Z,33.65
2022-09-03T16:02:11.178Z,33.32
2022-09-03T16:05:06.210Z,34.05
2022-09-03T16:07:50.242Z,33.82
2022-09-03T16:10:25.313Z,33.78
2022-09-03T16:13:05.051Z,33.27
2022-09-03T16:15:41.504Z,33.38
2022-09-03T16:18:24.758Z,33.77
2022-09-03T16:21:00.201Z,34.03
2022-09-03T16:23:32.006Z,34.83
2022-09-03T16:26:06.406Z,34.01
2022-09-03T16:28:50.952Z,34.66
2022-09-03T16:31:35.274Z,34.39
2022-09-03T16:34:16.689Z,34.58
2022-09-03T16:37:00.639Z,34.63
2022-09-03T16:39:44.008Z,34.58
2022-09-03T16:42:25.043Z,34.67
2022-09-03T16:45:06.836Z,34.99
2022-09-03T16:47:54.341Z,34.89
2022-09-03T16:50:40.838Z,34.97
2022-09-03T16:53:17.551Z,35.13
2022-09-03T16:55:59.245Z,35.14
2022-09-03T16:58:37.233Z,35.46
2022-09-03T17:01:22.113Z,35.21
2022-09-03T17:04:21.166Z,35.63
2022-09-03T17:07:01.102Z,35.34
2022-09-03T17:09:48.902Z,35.48
2022-09-03T17:12:31.625Z,35.58
2022-09-03T17:15:14.659Z,36.00
2022-09-03T17:18:18.937Z,36.66
2022-09-03T17:20:56.917Z,37.16
2022-09-03T17:23:56.269Z,37.72
2022-09-03T17:26:31.607Z,37.94
2022-09-03T17:29:09.933Z,38.43
2022-09-03T17:31:51.815Z,38.74
2022-09-03T17:34:35.296Z,39.21
2022-09-03T17:37:18.389Z,39.63
2022-09-03T17:40:09.279Z,40.62
2022-09-03T17:42:49.470Z,41.28
2022-09-03T17:45:28.398Z,42.01
2022-09-03T17:48:16.325Z,41.75
2022-09-03T17:50:55.493Z,41.94
2022-09-03T17:53:27.839Z,41.82
2022-09-03T17:56:01.216Z,42.41
2022-09-03T17:58:35.989Z,42.76
2022-09-03T18:01:21.028Z,43.22
2022-09-03T18:03:55.193Z,43.43
2022-09-03T18:06:36.311Z,43.98
2022-09-03T18:09:08.993Z,44.52
2022-09-03T18:11:41.981Z,44.21
2022-09-03T18:14:18.735Z,44.54
2022-09-03T18:16:54.592Z,44.64
2022-09-03T18:19:52.263Z,44.28
2022-09-03T18:22:41.637Z,44.88
2022-09-03T18:25:32.710Z,45.04
2022-09-03T18:28:26.104Z,45.46
2022-09-03T18:31:11.966Z,45.49
2022-09-03T18:33:57.949Z,45.54
2022-09-03T18:36:45.761Z,46.06
2022-09-03T18:39:44.395Z,46.91
2022-09-03T18:42:42.426Z,47.46
2022-09-03T18:46:22.385Z,47.37
2022-09-03T18:48:55.215Z,47.39
2022-09-03T18:51:52.648Z,47.92
2022-09-03T18:55:07.478Z,48.07
2022-09-03T18:58:06.192Z,47.94
2022-09-03T19:00:59.579Z,47.96
2022-09-03T19:03:59.541Z,49.25
2022-09-03T19:06:53.275Z,48.80
2022-09-03T19:09:55.583Z,49.67
2022-09-03T19:13:02.217Z,49.03
2022-09-03T19:15:52.935Z,49.01
2022-09-03T19:18:51.027Z,49.83
2022-09-03T19:21:47.279Z,50.47
2022-09-03T19:24:32.849Z,50.29
2022-09-03T19:27:52.908Z,50.93
2022-09-03T19:30:40.597Z,50.90
2022-09-03T19:33:33.520Z,50.85
2022-09-03T19:36:32.234Z,51.55
2022-09-03T19:39:32.516Z,51.77
2022-09-03T19:42:29.080Z,51.52
2022-09-03T19:45:27.681Z,51.72
2022-09-03T19:48:25.364Z,51.82
2022-09-03T19:51:23.758Z,52.23
2022-09-03T19:54:10.252Z,51.63
2022-09-03T19:56:57.858Z,52.12
2022-09-03T19:59:52.748Z,52.93
2022-09-03T20:02:39.019Z,52.85
2022-09-03T20:05:27.898Z,53.19
2022-09-03T20:08:15.223Z,53.57
2022-09-03T20:10:46.668Z,53.88
2022-09-03T20:13:17.450Z,53.82
2022-09-03T20:15:55.840Z,54.99
2022-09-03T20:18:44.507Z,55.56
2022-09-03T20:21:22.070Z,54.85
2022-09-03T20:23:59.701Z,55.18
2022-09-03T20:26:41.269Z,55.78
2022-09-03T20:29:29.681Z,55.92
2022-09-03T20:32:10.058Z,55.70
2022-09-03T20:34:48.832Z,55.52
2022-09-03T20:37:29.871Z,56.63
2022-09-03T20:40:20.943Z,55.83
2022-09-03T20:43:09.421Z,56.12
2022-09-03T20:45:54.846Z,56.39
2022-09-03T20:48:29.134Z,56.14
2022-09-03T20:51:10.263Z,56.29
2022-09-03T20:54:00.528Z,56.36
2022-09-03T20:56:35.213Z,56.25
2022-09-03T20:59:18.161Z,56.63
2022-09-03T21:01:53.711Z,56.62
2022-09-03T21:04:43.815Z,56.74
2022-09-03T21:07:21.106Z,56.32
2022-09-03T21:09:57.462Z,55.80
2022-09-03T21:12:37.563Z,56.06
2022-09-03T21:15:16.592Z,56.68
2022-09-03T21:18:00.074Z,56.58
2022-09-03T21:20:41.011Z,56.43
2022-09-03T21:23:19.318Z,55.93
2022-09-03T21:25:53.868Z,55.82
2022-09-03T21:28:27.890Z,56.37
2022-09-03T21:31:00.838Z,56.01
2022-09-03T21:33:31.047Z,56.30
2022-09-03T21:36:10.912Z,56.44
2022-09-03T21:38:46.737Z,56.78
2022-09-03T21:41:24.592Z,56.63
2022-09-03T21:43:59.720Z,56.53
2022-09-03T21:46:34.373Z,56.91
2022-09-03T21:49:07.931Z,56.96
2022-09-03T21:51:42.807Z,57.01
2022-09-03T21:54:16.819Z,57.25
2022-09-03T21:56:59.388Z,57.54
2022-09-03T21:59:44.427Z,57.46
2022-09-03T22:02:17.566Z,57.71
2022-09-03T22:04:45.956Z,57.73
2022-09-03T22:07:23.118Z,57.36
2022-09-03T22:09:56.018Z,57.74
2022-09-03T22:12:32.670Z,57.76
2022-09-03T22:15:02.692Z,57.64
2022-09-03T22:17:46.441Z,57.70
2022-09-03T22:20:19.283Z,57.83
2022-09-03T22:22:56.803Z,57.58
2022-09-03T22:25:33.129Z,58.12
2022-09-03T22:28:09.510Z,57.99
2022-09-03T22:30:47.548Z,58.15
2022-09-03T22:33:22.682Z,58.23
2022-09-03T22:36:14.818Z,58.40
2022-09-03T22:39:05.411Z,58.32
2022-09-03T22:42:01.120Z,58.27
2022-09-03T22:44:52.353Z,58.03
2022-09-03T22:47:33.693Z,57.92
2022-09-03T22:50:16.559Z,58.25
2022-09-03T22:52:50.608Z,58.54
2022-09-03T22:55:23.514Z,58.42
2022-09-03T22:58:00.247Z,58.61
2022-09-03T23:00:29.964Z,58.94
2022-09-03T23:03:05.061Z,59.02
2022-09-03T23:05:50.222Z,59.33
2022-09-03T23:08:25.660Z,58.68
2022-09-03T23:11:03.311Z,59.34
2022-09-03T23:13:36.513Z,59.68
2022-09-03T23:16:13.303Z,59.75
2022-09-03T23:18:46.184Z,59.83
2022-09-03T23:21:23.881Z,59.93
2022-09-03T23:23:59.078Z,60.06
2022-09-03T23:26:38.942Z,60.42
2022-09-03T23:29:13.906Z,60.35
2022-09-03T23:31:42.408Z,60.45
2022-09-03T23:34:12.062Z,60.87
2022-09-03T23:37:35.522Z,61.04
2022-09-03T23:40:26.461Z,60.48
2022-09-03T23:43:22.769Z,60.65
2022-09-03T23:46:01.825Z,60.28
2022-09-03T23:48:54.243Z,60.76
2022-09-03T23:51:36.809Z,60.71
2022-09-03T23:54:14.465Z,60.46
2022-09-03T23:57:04.156Z,60.69
2022-09-03T23:59:46.964Z,60.62
